createdAt,value
2017-06-19T00:00:24.244Z,10.8
2017-06-19T00:01:42.921Z,10.8
2017-06-19T00:03:01.647Z,10.8
2017-06-19T00:04:20.341Z,10.7
2017-06-19T00:05:39.045Z,10.7
2017-06-19T00:06:57.738Z,10.7
2017-06-19T00:08:16.438Z,10.7
2017-06-19T00:09:35.161Z,10.6
2017-06-19T00:10:53.883Z,10.6
2017-06-19T00:12:12.611Z,10.6
2017-06-19T00:13:31.289Z,10.6
2017-06-19T00:14:49.967Z,10.6
2017-06-19T00:16:08.639Z,10.6
2017-06-19T00:17:27.404Z,10.5
2017-06-19T00:18:46.071Z,10.5
2017-06-19T00:20:04.766Z,10.5
2017-06-19T00:21:23.486Z,10.5
2017-06-19T00:22:42.174Z,10.5
2017-06-19T00:24:00.848Z,10.4
2017-06-19T00:25:19.565Z,10.4
2017-06-19T00:26:38.233Z,10.4
2017-06-19T00:27:56.932Z,10.4
2017-06-19T00:29:15.608Z,10.4
2017-06-19T00:30:34.271Z,10.4
2017-06-19T00:31:52.992Z,10.4
2017-06-19T00:33:11.690Z,10.4
2017-06-19T00:34:30.363Z,10.4
2017-06-19T00:35:49.066Z,10.3
2017-06-19T00:37:07.735Z,10.3
2017-06-19T00:38:26.436Z,10.3
2017-06-19T00:39:45.130Z,10.3
2017-06-19T00:41:03.845Z,10.3
2017-06-19T00:42:22.566Z,10.3
2017-06-19T00:43:41.299Z,10.2
2017-06-19T00:44:59.983Z,10.2
2017-06-19T00:46:18.656Z,10.2
2017-06-19T00:47:37.428Z,10.2
2017-06-19T00:48:56.122Z,10.2
2017-06-19T00:50:14.793Z,10.1
2017-06-19T00:51:33.458Z,10.2
2017-06-19T00:52:52.128Z,10.2
2017-06-19T00:54:10.876Z,10.2
2017-06-19T00:55:29.565Z,10.1
2017-06-19T00:56:48.256Z,10.1
2017-06-19T00:58:06.976Z,10.1
2017-06-19T00:59:25.667Z,10.1
2017-06-19T01:00:44.356Z,10.1
2017-06-19T01:02:03.032Z,10
2017-06-19T01:03:21.701Z,10.1
2017-06-19T01:04:40.449Z,10
2017-06-19T01:05:59.177Z,10
2017-06-19T01:07:17.852Z,10
2017-06-19T01:08:36.577Z,10
2017-06-19T01:09:55.257Z,10
2017-06-19T01:11:14.012Z,9.9
2017-06-19T01:12:32.680Z,9.9
2017-06-19T01:13:51.333Z,9.9
2017-06-19T01:15:10.018Z,9.9
2017-06-19T01:16:28.719Z,9.9
2017-06-19T01:17:47.486Z,9.9
2017-06-19T01:19:06.187Z,9.9
2017-06-19T01:20:24.903Z,9.9
2017-06-19T01:21:43.555Z,9.9
2017-06-19T01:23:02.221Z,9.8
2017-06-19T01:24:20.880Z,9.8
2017-06-19T01:25:39.605Z,9.8
2017-06-19T01:26:58.305Z,9.8
2017-06-19T01:28:16.986Z,9.7
2017-06-19T01:29:35.636Z,9.7
2017-06-19T01:30:54.325Z,9.7
2017-06-19T01:32:12.982Z,9.7
2017-06-19T01:33:31.636Z,9.7
2017-06-19T01:34:50.328Z,9.7
2017-06-19T01:36:09.034Z,9.7
2017-06-19T01:37:27.731Z,9.7
2017-06-19T01:38:46.384Z,9.7
2017-06-19T01:40:05.040Z,9.7
2017-06-19T01:41:23.745Z,9.7
2017-06-19T01:42:42.410Z,9.7
2017-06-19T01:44:01.121Z,9.7
2017-06-19T01:45:19.774Z,9.7
2017-06-19T01:46:38.506Z,9.7
2017-06-19T01:47:57.195Z,9.7
2017-06-19T01:49:15.852Z,9.7
2017-06-19T01:50:34.554Z,9.7
2017-06-19T01:51:53.239Z,9.7
2017-06-19T01:53:11.890Z,9.7
2017-06-19T01:54:30.550Z,9.7
2017-06-19T01:55:49.258Z,9.6
2017-06-19T01:57:07.919Z,9.6
2017-06-19T01:58:26.650Z,9.6
2017-06-19T01:59:45.358Z,9.7
2017-06-19T02:01:04.072Z,9.7
2017-06-19T02:02:22.754Z,9.7
2017-06-19T02:03:41.411Z,9.6
2017-06-19T02:05:00.066Z,9.6
2017-06-19T02:06:18.727Z,9.5
2017-06-19T02:07:37.460Z,9.5
2017-06-19T02:08:56.114Z,9.5
2017-06-19T02:10:14.764Z,9.5
2017-06-19T02:11:33.423Z,9.5
2017-06-19T02:12:52.103Z,9.4
2017-06-19T02:14:10.786Z,9.4
2017-06-19T02:15:29.456Z,9.4
2017-06-19T02:16:48.156Z,9.4
2017-06-19T02:18:06.814Z,9.5
2017-06-19T02:19:25.522Z,9.4
2017-06-19T02:20:44.228Z,9.5
2017-06-19T02:22:02.886Z,9.6
2017-06-19T02:23:21.608Z,9.6
2017-06-19T02:24:40.302Z,9.6
2017-06-19T02:25:58.978Z,9.6
2017-06-19T02:27:17.683Z,9.6
2017-06-19T02:28:36.361Z,9.6
2017-06-19T02:29:55.019Z,9.5
2017-06-19T02:31:13.672Z,9.5
2017-06-19T02:32:32.395Z,9.5
2017-06-19T02:33:51.069Z,9.5
2017-06-19T02:35:09.774Z,9.4
2017-06-19T02:36:28.428Z,9.4
2017-06-19T02:37:47.085Z,9.4
2017-06-19T02:39:05.737Z,9.3
2017-06-19T02:40:24.421Z,9.3
2017-06-19T02:41:43.114Z,9.3
2017-06-19T02:43:01.777Z,9.3
2017-06-19T02:44:20.450Z,9.3
2017-06-19T02:45:39.141Z,9.3
2017-06-19T02:46:57.794Z,9.3
2017-06-19T02:48:16.467Z,9.3
2017-06-19T02:49:35.133Z,9.3
2017-06-19T02:50:53.805Z,9.3
2017-06-19T02:52:12.507Z,9.3
2017-06-19T02:53:31.202Z,9.3
2017-06-19T02:54:49.898Z,9.3
2017-06-19T02:56:08.593Z,9.3
2017-06-19T02:57:27.298Z,9.3
2017-06-19T02:58:45.948Z,9.3
2017-06-19T03:00:04.612Z,9.3
2017-06-19T03:01:23.342Z,9.3
2017-06-19T03:02:42.044Z,9.3
2017-06-19T03:04:00.694Z,9.3
2017-06-19T03:05:19.358Z,9.4
2017-06-19T03:06:38.059Z,9.3
2017-06-19T03:07:56.713Z,9.3
2017-06-19T03:09:15.368Z,9.3
2017-06-19T03:10:34.079Z,9.3
2017-06-19T03:11:52.772Z,9.4
2017-06-19T03:13:11.425Z,9.4
2017-06-19T03:14:30.081Z,9.4
2017-06-19T03:15:48.773Z,9.4
2017-06-19T03:17:07.436Z,9.4
2017-06-19T03:18:26.091Z,9.4
2017-06-19T03:19:44.808Z,9.4
2017-06-19T03:21:03.488Z,9.5
2017-06-19T03:22:22.141Z,9.5
2017-06-19T03:23:40.806Z,9.5
2017-06-19T03:24:59.476Z,9.5
2017-06-19T03:26:18.181Z,9.5
2017-06-19T03:27:36.871Z,9.6
2017-06-19T03:28:55.552Z,9.6
2017-06-19T03:30:14.212Z,9.7
2017-06-19T03:31:32.880Z,9.8
2017-06-19T03:32:51.603Z,9.8
2017-06-19T03:34:10.309Z,9.8
2017-06-19T03:35:28.992Z,9.8
2017-06-19T03:36:47.676Z,9.8
2017-06-19T03:38:06.325Z,9.9
2017-06-19T03:39:24.988Z,9.9
2017-06-19T03:40:43.657Z,10
2017-06-19T03:42:02.414Z,10
2017-06-19T03:43:21.138Z,10.1
2017-06-19T03:44:39.805Z,10.1
2017-06-19T03:45:58.520Z,10.2
2017-06-19T03:47:17.274Z,10.3
2017-06-19T03:48:35.964Z,10.3
2017-06-19T03:49:54.684Z,10.4
2017-06-19T03:51:13.406Z,10.5
2017-06-19T03:52:32.109Z,10.6
2017-06-19T03:53:50.784Z,10.7
2017-06-19T03:55:09.456Z,10.8
2017-06-19T03:56:28.127Z,10.8
2017-06-19T03:57:46.869Z,10.8
2017-06-19T03:59:05.571Z,10.8
2017-06-19T04:00:24.242Z,10.9
2017-06-19T04:01:42.911Z,10.9
2017-06-19T04:03:01.610Z,11
2017-06-19T04:04:20.329Z,11
2017-06-19T04:05:39.053Z,11.1
2017-06-19T04:06:57.719Z,11.1
2017-06-19T04:08:16.399Z,11.1
2017-06-19T04:09:35.113Z,11.2
2017-06-19T04:10:53.794Z,11.2
2017-06-19T04:12:12.464Z,11.2
2017-06-19T04:13:31.200Z,11.3
2017-06-19T04:14:49.871Z,11.3
2017-06-19T04:16:08.563Z,11.3
2017-06-19T04:17:27.236Z,11.4
2017-06-19T04:18:45.925Z,11.4
2017-06-19T04:20:04.600Z,11.5
2017-06-19T04:21:23.263Z,11.5
2017-06-19T04:22:41.928Z,11.6
2017-06-19T04:24:00.651Z,11.6
2017-06-19T04:25:19.327Z,11.7
2017-06-19T04:26:38.015Z,11.8
2017-06-19T04:27:56.740Z,11.9
2017-06-19T04:29:15.452Z,11.9
2017-06-19T04:30:34.166Z,12
2017-06-19T04:31:52.864Z,12
2017-06-19T04:33:11.568Z,12.1
2017-06-19T04:34:30.265Z,12.1
2017-06-19T04:35:48.976Z,12.2
2017-06-19T04:37:07.690Z,12.2
2017-06-19T04:38:26.368Z,12.3
2017-06-19T04:39:45.060Z,12.4
2017-06-19T04:41:03.732Z,12.5
2017-06-19T04:42:22.499Z,12.5
2017-06-19T04:43:41.232Z,12.6
2017-06-19T04:44:59.919Z,12.7
2017-06-19T04:46:18.585Z,12.7
2017-06-19T04:47:37.313Z,12.8
2017-06-19T04:48:55.988Z,12.9
2017-06-19T04:50:14.663Z,13
2017-06-19T04:51:33.412Z,13
2017-06-19T04:52:52.125Z,13
2017-06-19T04:54:10.792Z,13.1
2017-06-19T04:55:29.509Z,13.1
2017-06-19T04:56:48.217Z,13.2
2017-06-19T04:58:06.922Z,13.2
2017-06-19T04:59:25.645Z,13.3
2017-06-19T05:00:44.366Z,13.3
2017-06-19T05:02:03.041Z,13.3
2017-06-19T05:03:21.748Z,13.4
2017-06-19T05:04:40.456Z,13.4
2017-06-19T05:05:59.173Z,13.5
2017-06-19T05:07:17.845Z,13.5
2017-06-19T05:08:36.564Z,13.6
2017-06-19T05:09:55.231Z,13.7
2017-06-19T05:11:13.972Z,13.7
2017-06-19T05:12:32.880Z,13.7
2017-06-19T05:13:51.567Z,13.8
2017-06-19T05:15:10.241Z,13.9
2017-06-19T05:16:28.945Z,13.9
2017-06-19T05:17:47.625Z,14
2017-06-19T05:19:06.291Z,14.1
2017-06-19T05:20:24.959Z,14.2
2017-06-19T05:21:43.650Z,14.3
2017-06-19T05:23:02.426Z,14.4
2017-06-19T05:24:21.129Z,14.5
2017-06-19T05:25:39.797Z,14.5
2017-06-19T05:26:58.489Z,14.6
2017-06-19T05:28:17.200Z,14.7
2017-06-19T05:29:35.879Z,14.7
2017-06-19T05:30:54.587Z,14.8
2017-06-19T05:32:13.305Z,14.8
2017-06-19T05:33:31.991Z,14.9
2017-06-19T05:34:50.713Z,14.9
2017-06-19T05:36:09.386Z,14.9
2017-06-19T05:37:28.117Z,15
2017-06-19T05:38:46.800Z,15.1
2017-06-19T05:40:05.470Z,15.2
2017-06-19T05:41:24.202Z,15.2
2017-06-19T05:42:42.894Z,15.3
2017-06-19T05:44:01.583Z,15.3
2017-06-19T05:45:20.256Z,15.4
2017-06-19T05:46:38.997Z,15.4
2017-06-19T05:47:57.675Z,15.5
2017-06-19T05:49:16.423Z,15.6
2017-06-19T05:50:35.101Z,15.7
2017-06-19T05:51:53.781Z,15.7
2017-06-19T05:53:12.456Z,15.8
2017-06-19T05:54:31.200Z,15.8
2017-06-19T05:55:49.869Z,15.9
2017-06-19T05:57:08.573Z,16
2017-06-19T05:58:27.288Z,16
2017-06-19T05:59:46.019Z,16.1
2017-06-19T06:01:04.690Z,16.1
2017-06-19T06:02:23.413Z,16.2
2017-06-19T06:03:42.084Z,16.3
2017-06-19T06:05:00.828Z,16.4
2017-06-19T06:06:19.522Z,16.4
2017-06-19T06:07:38.210Z,16.5
2017-06-19T06:08:56.880Z,16.6
2017-06-19T06:10:15.581Z,16.7
2017-06-19T06:11:34.256Z,16.7
2017-06-19T06:12:52.925Z,16.8
2017-06-19T06:14:11.623Z,16.9
2017-06-19T06:15:30.342Z,17
2017-06-19T06:16:49.085Z,17
2017-06-19T06:18:07.789Z,17.1
2017-06-19T06:19:26.460Z,17.1
2017-06-19T06:20:45.187Z,17.2
2017-06-19T06:22:03.891Z,17.3
2017-06-19T06:23:22.572Z,17.4
2017-06-19T06:24:41.240Z,17.4
2017-06-19T06:25:59.940Z,17.5
2017-06-19T06:27:18.613Z,17.6
2017-06-19T06:28:37.304Z,17.7
2017-06-19T06:29:56.042Z,17.7
2017-06-19T06:31:14.790Z,17.9
2017-06-19T06:32:33.464Z,17.9
2017-06-19T06:33:52.135Z,18
2017-06-19T06:35:10.809Z,18.1
2017-06-19T06:36:29.510Z,18.2
2017-06-19T06:37:48.203Z,18.3
2017-06-19T06:39:06.871Z,18.3
2017-06-19T06:40:25.562Z,18.3
2017-06-19T06:41:44.234Z,18.4
2017-06-19T06:43:02.912Z,18.5
2017-06-19T06:44:21.588Z,18.6
2017-06-19T06:45:40.281Z,18.7
2017-06-19T06:46:59.061Z,18.8
2017-06-19T06:48:17.785Z,18.8
2017-06-19T06:49:36.507Z,18.9
2017-06-19T06:50:55.230Z,18.9
2017-06-19T06:52:13.934Z,19
2017-06-19T06:53:32.608Z,19.1
2017-06-19T06:54:51.314Z,19.2
2017-06-19T06:56:10.014Z,19.3
2017-06-19T06:57:28.714Z,19.4
2017-06-19T06:58:47.406Z,19.5
2017-06-19T07:00:06.083Z,19.5
2017-06-19T07:01:24.763Z,19.5
2017-06-19T07:02:43.483Z,19.6
2017-06-19T07:04:02.157Z,19.7
2017-06-19T07:05:20.824Z,19.8
2017-06-19T07:06:39.493Z,19.9
2017-06-19T07:07:58.229Z,19.9
2017-06-19T07:09:16.920Z,20
2017-06-19T07:10:35.593Z,20
2017-06-19T07:11:54.278Z,20.1
2017-06-19T07:13:12.962Z,20.1
2017-06-19T07:14:31.646Z,20.1
2017-06-19T07:15:50.340Z,20.2
2017-06-19T07:17:09.113Z,20.3
2017-06-19T07:18:27.804Z,20.3
2017-06-19T07:19:46.477Z,20.4
2017-06-19T07:21:05.146Z,20.4
2017-06-19T07:22:23.873Z,20.5
2017-06-19T07:23:42.602Z,20.6
2017-06-19T07:25:01.321Z,20.7
2017-06-19T07:26:19.996Z,20.7
2017-06-19T07:27:38.666Z,20.8
2017-06-19T07:28:57.427Z,20.9
2017-06-19T07:30:16.110Z,20.9
2017-06-19T07:31:34.795Z,20.9
2017-06-19T07:32:53.470Z,21
2017-06-19T07:34:12.158Z,21
2017-06-19T07:35:30.830Z,21.1
2017-06-19T07:36:49.544Z,21.1
2017-06-19T07:38:08.239Z,21.2
2017-06-19T07:39:26.939Z,21.2
2017-06-19T07:40:45.624Z,21.4
2017-06-19T07:42:04.343Z,21.5
2017-06-19T07:43:23.070Z,21.5
2017-06-19T07:44:41.751Z,21.5
2017-06-19T07:46:00.424Z,21.5
2017-06-19T07:47:19.161Z,21.5
2017-06-19T07:48:37.861Z,21.6
2017-06-19T07:49:56.579Z,21.7
2017-06-19T07:51:15.254Z,21.7
2017-06-19T07:52:33.948Z,21.8
2017-06-19T07:53:52.667Z,21.8
2017-06-19T07:55:11.343Z,21.9
2017-06-19T07:56:30.032Z,21.9
2017-06-19T07:57:48.744Z,22
2017-06-19T07:59:07.470Z,22
2017-06-19T08:00:26.191Z,22
2017-06-19T08:01:44.867Z,22.1
2017-06-19T08:03:03.566Z,22.1
2017-06-19T08:04:22.251Z,22.1
2017-06-19T08:05:40.945Z,22.1
2017-06-19T08:06:59.618Z,22.2
2017-06-19T08:08:18.335Z,22.2
2017-06-19T08:09:37.007Z,22.3
2017-06-19T08:10:55.757Z,22.3
2017-06-19T08:12:14.427Z,22.3
2017-06-19T08:13:33.106Z,22.4
2017-06-19T08:14:51.781Z,22.4
2017-06-19T08:16:10.460Z,22.4
2017-06-19T08:17:29.149Z,22.5
2017-06-19T08:18:47.824Z,22.5
2017-06-19T08:20:06.523Z,22.6
2017-06-19T08:21:25.233Z,22.6
2017-06-19T08:22:43.934Z,22.6
2017-06-19T08:24:02.608Z,22.6
2017-06-19T08:25:21.311Z,22.7
2017-06-19T08:26:40.000Z,22.7
2017-06-19T08:27:58.679Z,22.7
2017-06-19T08:29:17.403Z,22.8
2017-06-19T08:30:36.080Z,22.8
2017-06-19T08:31:54.753Z,22.8
2017-06-19T08:33:13.421Z,22.8
2017-06-19T08:34:32.119Z,22.8
2017-06-19T08:35:50.821Z,22.8
2017-06-19T08:37:09.495Z,22.8
2017-06-19T08:38:28.164Z,22.8
2017-06-19T08:39:46.826Z,22.9
2017-06-19T08:41:05.497Z,22.9
2017-06-19T08:42:24.192Z,23
2017-06-19T08:43:42.862Z,23
2017-06-19T08:45:01.569Z,23
2017-06-19T08:46:20.262Z,23.1
2017-06-19T08:47:38.983Z,23.2
2017-06-19T08:48:57.708Z,23.3
2017-06-19T08:50:16.384Z,23.3
2017-06-19T08:51:35.109Z,23.4
2017-06-19T08:52:53.820Z,23.4
2017-06-19T08:54:12.493Z,23.4
2017-06-19T08:55:31.163Z,23.4
2017-06-19T08:56:49.859Z,23.4
2017-06-19T08:58:08.583Z,23.4
2017-06-19T08:59:27.313Z,23.4
2017-06-19T09:00:46.031Z,23.4
2017-06-19T09:02:04.695Z,23.4
2017-06-19T09:03:23.368Z,23.4
2017-06-19T09:04:42.076Z,23.4
2017-06-19T09:06:00.799Z,23.5
2017-06-19T09:07:19.489Z,23.6
2017-06-19T09:08:38.192Z,23.6
2017-06-19T09:09:56.868Z,23.6
2017-06-19T09:11:15.571Z,23.6
2017-06-19T09:12:34.242Z,23.6
2017-06-19T09:13:52.923Z,23.7
2017-06-19T09:15:11.614Z,23.8
2017-06-19T09:16:30.331Z,23.8
2017-06-19T09:17:49.049Z,23.8
2017-06-19T09:19:07.783Z,23.8
2017-06-19T09:20:26.507Z,23.8
2017-06-19T09:21:45.232Z,23.8
2017-06-19T09:23:03.960Z,23.8
2017-06-19T09:24:22.635Z,23.8
2017-06-19T09:25:41.302Z,23.8
2017-06-19T09:26:59.963Z,23.8
2017-06-19T09:28:18.675Z,23.8
2017-06-19T09:29:37.403Z,23.8
2017-06-19T09:30:56.099Z,23.8
2017-06-19T09:32:14.765Z,23.9
2017-06-19T09:33:33.440Z,23.9
2017-06-19T09:34:52.202Z,24
2017-06-19T09:36:10.908Z,24
2017-06-19T09:37:29.586Z,24
2017-06-19T09:38:48.284Z,24
2017-06-19T09:40:06.964Z,24.1
2017-06-19T09:41:25.672Z,24.2
2017-06-19T09:42:44.370Z,24.3
2017-06-19T09:44:03.041Z,24.3
2017-06-19T09:45:21.787Z,24.3
2017-06-19T09:46:40.454Z,24.3
2017-06-19T09:47:59.138Z,24.3
2017-06-19T09:49:17.818Z,24.3
2017-06-19T09:50:36.511Z,24.3
2017-06-19T09:51:55.242Z,24.4
2017-06-19T09:53:13.940Z,24.4
2017-06-19T09:54:32.630Z,24.5
2017-06-19T09:55:51.335Z,24.6
2017-06-19T09:57:10.057Z,24.6
2017-06-19T09:58:28.772Z,24.6
2017-06-19T09:59:47.455Z,24.6
2017-06-19T10:01:06.137Z,24.5
2017-06-19T10:02:24.803Z,24.6
2017-06-19T10:03:43.470Z,24.6
2017-06-19T10:05:02.190Z,24.6
2017-06-19T10:06:20.913Z,24.6
2017-06-19T10:07:39.578Z,24.7
2017-06-19T10:08:58.338Z,24.7
2017-06-19T10:10:17.014Z,24.7
2017-06-19T10:11:35.703Z,24.8
2017-06-19T10:12:54.429Z,24.8
2017-06-19T10:14:13.101Z,24.7
2017-06-19T10:15:31.819Z,24.7
2017-06-19T10:16:50.512Z,24.8
2017-06-19T10:18:09.188Z,24.7
2017-06-19T10:19:27.855Z,24.7
2017-06-19T10:20:46.570Z,24.8
2017-06-19T10:22:05.285Z,24.8
2017-06-19T10:23:23.993Z,24.9
2017-06-19T10:24:42.674Z,24.9
2017-06-19T10:26:01.337Z,25
2017-06-19T10:27:20.056Z,25.1
2017-06-19T10:28:38.772Z,25.2
2017-06-19T10:29:57.497Z,25.2
2017-06-19T10:31:16.167Z,25.3
2017-06-19T10:32:34.843Z,25.3
2017-06-19T10:33:53.570Z,25.3
2017-06-19T10:35:12.291Z,25.4
2017-06-19T10:36:30.962Z,25.4
2017-06-19T10:37:49.678Z,25.5
2017-06-19T10:39:08.353Z,25.5
2017-06-19T10:40:27.038Z,25.6
2017-06-19T10:41:45.702Z,25.6
2017-06-19T10:43:04.375Z,25.6
2017-06-19T10:44:23.045Z,25.6
2017-06-19T10:45:41.745Z,25.6
2017-06-19T10:47:00.425Z,25.6
2017-06-19T10:48:19.182Z,25.7
2017-06-19T10:49:37.857Z,25.8
2017-06-19T10:50:56.575Z,25.8
2017-06-19T10:52:15.297Z,25.8
2017-06-19T10:53:34.031Z,25.8
2017-06-19T10:54:52.705Z,25.8
2017-06-19T10:56:11.441Z,25.8
2017-06-19T10:57:30.152Z,25.8
2017-06-19T10:58:48.935Z,25.9
2017-06-19T11:00:07.607Z,25.9
2017-06-19T11:01:26.341Z,26
2017-06-19T11:02:45.012Z,26.1
2017-06-19T11:04:03.736Z,26.1
2017-06-19T11:05:22.424Z,26.1
2017-06-19T11:06:41.097Z,26.1
2017-06-19T11:07:59.770Z,26.1
2017-06-19T11:09:18.462Z,26.2
2017-06-19T11:10:37.164Z,26.2
2017-06-19T11:11:55.884Z,26.2
2017-06-19T11:13:14.561Z,26.3
2017-06-19T11:14:33.245Z,26.3
2017-06-19T11:15:51.913Z,26.4
2017-06-19T11:17:10.579Z,26.5
2017-06-19T11:18:29.298Z,26.6
2017-06-19T11:19:47.985Z,26.6
2017-06-19T11:21:06.650Z,26.7
2017-06-19T11:22:25.369Z,26.7
2017-06-19T11:23:44.072Z,26.7
2017-06-19T11:25:02.748Z,26.8
2017-06-19T11:26:21.421Z,26.8
2017-06-19T11:27:40.119Z,26.9
2017-06-19T11:28:58.865Z,26.9
2017-06-19T11:30:17.586Z,27
2017-06-19T11:31:36.255Z,27
2017-06-19T11:32:54.940Z,27.1
2017-06-19T11:34:13.607Z,27.1
2017-06-19T11:35:32.359Z,27.1
2017-06-19T11:36:51.043Z,27.2
2017-06-19T11:38:09.715Z,27.3
2017-06-19T11:39:28.382Z,27.3
2017-06-19T11:40:47.062Z,27.4
2017-06-19T11:42:05.733Z,27.5
2017-06-19T11:43:24.397Z,27.6
2017-06-19T11:44:43.066Z,27.6
2017-06-19T11:46:01.745Z,27.7
2017-06-19T11:47:20.454Z,27.7
2017-06-19T11:48:39.140Z,27.7
2017-06-19T11:49:57.809Z,27.7
2017-06-19T11:51:16.509Z,27.8
2017-06-19T11:52:35.238Z,28.1
2017-06-19T11:53:53.938Z,28.5
2017-06-19T11:55:12.639Z,29.2
2017-06-19T11:56:31.325Z,30.2
2017-06-19T11:57:50.013Z,31.6
2017-06-19T11:59:08.683Z,34.4
2017-06-19T12:00:27.436Z,34.9
2017-06-19T12:01:46.137Z,35.3
2017-06-19T12:03:04.850Z,35.6
2017-06-19T12:04:23.567Z,35.9
2017-06-19T12:05:42.268Z,36.1
2017-06-19T12:07:00.949Z,36.2
2017-06-19T12:08:19.670Z,36.3
2017-06-19T12:09:38.339Z,36.3
2017-06-19T12:10:57.011Z,36.4
2017-06-19T12:12:15.735Z,36.5
2017-06-19T12:13:34.482Z,36.6
2017-06-19T12:14:53.200Z,36.8
2017-06-19T12:16:11.921Z,36.9
2017-06-19T12:17:30.618Z,36.9
2017-06-19T12:18:49.328Z,37
2017-06-19T12:20:08.002Z,37
2017-06-19T12:21:26.672Z,37
2017-06-19T12:22:45.406Z,37
2017-06-19T12:24:04.110Z,37
2017-06-19T12:25:22.783Z,37.1
2017-06-19T12:26:41.457Z,37.2
2017-06-19T12:28:00.136Z,37.1
2017-06-19T12:29:18.845Z,37.1
2017-06-19T12:30:37.565Z,37.1
2017-06-19T12:31:56.267Z,37.1
2017-06-19T12:33:14.992Z,37.2
2017-06-19T12:34:33.675Z,37.2
2017-06-19T12:35:52.404Z,37.3
2017-06-19T12:37:11.076Z,37.4
2017-06-19T12:38:29.747Z,37.4
2017-06-19T12:39:48.425Z,37.5
2017-06-19T12:41:07.097Z,37.5
2017-06-19T12:42:25.768Z,37.5
2017-06-19T12:43:44.463Z,37.5
2017-06-19T12:45:03.149Z,37.5
2017-06-19T12:46:21.815Z,37.5
2017-06-19T12:47:40.482Z,37.5
2017-06-19T12:48:59.199Z,37.6
2017-06-19T12:50:17.879Z,37.6
2017-06-19T12:51:36.600Z,37.6
2017-06-19T12:52:55.327Z,37.6
2017-06-19T12:54:14.053Z,37.6
2017-06-19T12:55:32.719Z,37.6
2017-06-19T12:56:51.393Z,37.6
2017-06-19T12:58:10.063Z,37.6
2017-06-19T12:59:28.753Z,37.6
2017-06-19T13:00:47.482Z,37.6
2017-06-19T13:02:06.206Z,37.7
2017-06-19T13:03:24.894Z,37.7
2017-06-19T13:04:43.596Z,37.7
2017-06-19T13:06:02.303Z,37.7
2017-06-19T13:07:20.980Z,37.7
2017-06-19T13:08:39.648Z,37.6
2017-06-19T13:09:58.331Z,37.7
2017-06-19T13:11:17.054Z,37.6
2017-06-19T13:12:35.750Z,37.7
2017-06-19T13:13:54.422Z,37.7
2017-06-19T13:15:13.115Z,37.7
2017-06-19T13:16:31.830Z,37.7
2017-06-19T13:17:50.497Z,37.8
2017-06-19T13:19:09.182Z,37.8
2017-06-19T13:20:27.879Z,37.8
2017-06-19T13:21:46.569Z,37.8
2017-06-19T13:23:05.246Z,37.8
2017-06-19T13:24:23.948Z,37.8
2017-06-19T13:25:42.629Z,37.8
2017-06-19T13:27:01.310Z,37.7
2017-06-19T13:28:20.037Z,37.7
2017-06-19T13:29:38.771Z,37.7
2017-06-19T13:30:57.516Z,37.8
2017-06-19T13:32:16.270Z,37.9
2017-06-19T13:33:34.942Z,37.9
2017-06-19T13:34:53.611Z,37.9
2017-06-19T13:36:12.348Z,37.9
2017-06-19T13:37:31.016Z,37.8
2017-06-19T13:38:49.686Z,37.8
2017-06-19T13:40:08.385Z,37.8
2017-06-19T13:41:27.127Z,37.8
2017-06-19T13:42:45.797Z,37.8
2017-06-19T13:44:04.465Z,37.8
2017-06-19T13:45:23.138Z,37.8
2017-06-19T13:46:41.833Z,37.8
2017-06-19T13:48:00.557Z,37.8
2017-06-19T13:49:19.226Z,37.8
2017-06-19T13:50:37.914Z,37.8
2017-06-19T13:51:56.660Z,37.8
2017-06-19T13:53:15.334Z,37.8
2017-06-19T13:54:34.103Z,37.8
2017-06-19T13:55:52.775Z,37.8
2017-06-19T13:57:11.452Z,37.9
2017-06-19T13:58:30.122Z,37.9
2017-06-19T13:59:48.834Z,37.9
2017-06-19T14:01:07.551Z,37.9
2017-06-19T14:02:26.274Z,37.9
2017-06-19T14:03:44.981Z,37.9
2017-06-19T14:05:03.646Z,37.9
2017-06-19T14:06:22.393Z,37.9
2017-06-19T14:07:41.120Z,37.9
2017-06-19T14:08:59.785Z,37.9
2017-06-19T14:10:18.512Z,37.8
2017-06-19T14:11:37.188Z,37.9
2017-06-19T14:12:55.922Z,37.9
2017-06-19T14:14:14.597Z,37.9
2017-06-19T14:15:33.306Z,37.9
2017-06-19T14:16:51.974Z,37.9
2017-06-19T14:18:10.707Z,37.9
2017-06-19T14:19:29.410Z,38
2017-06-19T14:20:48.082Z,38
2017-06-19T14:22:06.806Z,38
2017-06-19T14:23:25.503Z,38
2017-06-19T14:24:44.188Z,37.9
2017-06-19T14:26:02.863Z,38.1
2017-06-19T14:27:21.568Z,38.1
2017-06-19T14:28:40.255Z,38
2017-06-19T14:29:58.959Z,38
2017-06-19T14:31:17.641Z,38
2017-06-19T14:32:36.348Z,38
2017-06-19T14:33:55.056Z,37.9
2017-06-19T14:35:13.806Z,37.7
2017-06-19T14:36:32.535Z,37.1
2017-06-19T14:37:51.207Z,36.8
2017-06-19T14:39:09.911Z,36.3
2017-06-19T14:40:28.588Z,35.9
2017-06-19T14:41:47.313Z,35.6
2017-06-19T14:43:05.984Z,35.5
2017-06-19T14:44:24.658Z,35.4
2017-06-19T14:45:43.332Z,35.2
2017-06-19T14:47:02.002Z,35.1
2017-06-19T14:48:20.724Z,35
2017-06-19T14:49:39.445Z,34.9
2017-06-19T14:50:58.171Z,34.8
2017-06-19T14:52:16.857Z,34.7
2017-06-19T14:53:35.569Z,34.7
2017-06-19T14:54:54.252Z,34.6
2017-06-19T14:56:12.976Z,34.5
2017-06-19T14:57:31.647Z,34.5
2017-06-19T14:58:50.327Z,34.5
2017-06-19T15:00:09.053Z,34.5
2017-06-19T15:01:27.778Z,34.4
2017-06-19T15:02:46.448Z,34.4
2017-06-19T15:04:05.125Z,34.4
2017-06-19T15:05:23.809Z,34.4
2017-06-19T15:06:42.503Z,34.3
2017-06-19T15:08:01.174Z,34
2017-06-19T15:09:19.843Z,33.6
2017-06-19T15:10:38.567Z,33.5
2017-06-19T15:11:57.273Z,33.4
2017-06-19T15:13:15.957Z,33.4
2017-06-19T15:14:34.631Z,33.2
2017-06-19T15:15:53.337Z,33.2
2017-06-19T15:17:12.011Z,33.1
2017-06-19T15:18:30.679Z,33.1
2017-06-19T15:19:49.349Z,32.8
2017-06-19T15:21:08.062Z,32.6
2017-06-19T15:22:26.754Z,32.6
2017-06-19T15:23:45.428Z,32.4
2017-06-19T15:25:04.128Z,32.1
2017-06-19T15:26:22.811Z,31.8
2017-06-19T15:27:41.489Z,31.8
2017-06-19T15:29:00.210Z,31.7
2017-06-19T15:30:18.913Z,31.8
2017-06-19T15:31:37.594Z,32
2017-06-19T15:32:56.257Z,31.9
2017-06-19T15:34:14.926Z,31.9
2017-06-19T15:35:33.602Z,31.7
2017-06-19T15:36:52.352Z,31.6
2017-06-19T15:38:11.057Z,32.1
2017-06-19T15:39:29.725Z,33.2
2017-06-19T15:40:48.397Z,33.8
2017-06-19T15:42:07.108Z,33.7
2017-06-19T15:43:25.837Z,33.3
2017-06-19T15:44:44.561Z,33
2017-06-19T15:46:03.266Z,33.7
2017-06-19T15:47:21.973Z,34.6
2017-06-19T15:48:40.643Z,35.1
2017-06-19T15:49:59.311Z,35
2017-06-19T15:51:17.976Z,34.7
2017-06-19T15:52:36.707Z,34.5
2017-06-19T15:53:55.416Z,34.3
2017-06-19T15:55:14.118Z,34.3
2017-06-19T15:56:32.807Z,34.4
2017-06-19T15:57:51.485Z,34.6
2017-06-19T15:59:10.161Z,35.2
2017-06-19T16:00:28.851Z,35.7
2017-06-19T16:01:47.559Z,36
2017-06-19T16:03:06.263Z,36.3
2017-06-19T16:04:24.935Z,36.5
2017-06-19T16:05:43.614Z,36.7
2017-06-19T16:07:02.339Z,36.9
2017-06-19T16:08:21.067Z,36.9
2017-06-19T16:09:39.764Z,36.6
2017-06-19T16:10:58.469Z,36.3
2017-06-19T16:12:17.140Z,36.3
2017-06-19T16:13:35.820Z,36.3
2017-06-19T16:14:54.498Z,36.4
2017-06-19T16:16:13.225Z,36.6
2017-06-19T16:17:31.895Z,36.6
2017-06-19T16:18:50.592Z,36.7
2017-06-19T16:20:09.304Z,36.8
2017-06-19T16:21:27.979Z,36.9
2017-06-19T16:22:46.652Z,36.9
2017-06-19T16:24:05.333Z,36.9
2017-06-19T16:25:24.092Z,36.8
2017-06-19T16:26:42.794Z,36.6
2017-06-19T16:28:01.458Z,36.4
2017-06-19T16:29:20.208Z,36.2
2017-06-19T16:30:38.898Z,36.1
2017-06-19T16:31:57.572Z,36.2
2017-06-19T16:33:16.244Z,36.3
2017-06-19T16:34:34.916Z,36.3
2017-06-19T16:35:53.622Z,36.4
2017-06-19T16:37:12.350Z,36.5
2017-06-19T16:38:31.016Z,36.5
2017-06-19T16:39:49.694Z,36.5
2017-06-19T16:41:08.425Z,36.5
2017-06-19T16:42:27.103Z,36.5
2017-06-19T16:43:45.792Z,36.5
2017-06-19T16:45:04.468Z,36.5
2017-06-19T16:46:23.150Z,36.6
2017-06-19T16:47:41.820Z,36.5
2017-06-19T16:49:00.501Z,36.6
2017-06-19T16:50:19.235Z,36.6
2017-06-19T16:51:37.919Z,36.5
2017-06-19T16:52:56.607Z,36.2
2017-06-19T16:54:15.326Z,35.8
2017-06-19T16:55:34.033Z,35.5
2017-06-19T16:56:52.743Z,35.4
2017-06-19T16:58:11.412Z,35.5
2017-06-19T16:59:30.085Z,35.5
2017-06-19T17:00:48.799Z,35.6
2017-06-19T17:02:07.470Z,35.6
2017-06-19T17:03:26.162Z,35.5
2017-06-19T17:04:44.829Z,35.5
2017-06-19T17:06:03.557Z,35.6
2017-06-19T17:07:22.240Z,35.8
2017-06-19T17:08:40.908Z,36
2017-06-19T17:09:59.570Z,36.2
2017-06-19T17:11:18.260Z,36.2
2017-06-19T17:12:36.987Z,36.3
2017-06-19T17:13:55.655Z,36.3
2017-06-19T17:15:14.347Z,36.2
2017-06-19T17:16:33.033Z,36
2017-06-19T17:17:51.735Z,36
2017-06-19T17:19:10.410Z,36.1
2017-06-19T17:20:29.112Z,36.1
2017-06-19T17:21:47.797Z,36.1
2017-06-19T17:23:06.519Z,36.2
2017-06-19T17:24:25.218Z,36.2
2017-06-19T17:25:43.910Z,36.2
2017-06-19T17:27:02.594Z,36.1
2017-06-19T17:28:21.326Z,36.1
2017-06-19T17:29:40.053Z,36.2
2017-06-19T17:30:58.725Z,36.2
2017-06-19T17:32:17.430Z,36.1
2017-06-19T17:33:36.102Z,36
2017-06-19T17:34:54.775Z,35.7
2017-06-19T17:36:13.448Z,35.4
2017-06-19T17:37:32.149Z,35.2